Time;durP1;ratioP1;P1;durP2;ratioP2;P2;SDS_P1;SDS_P2;PMS_P1;PMS_P2;Temp;Humidity;BMP_temperature;BMP_pressure;BME280_temperature;BME280_humidity;BME280_pressure;Samples;Min_cycle;Max_cycle;Signal;HPM_P1;HPM_P2
2022/04/04 00:00:56;;;;;;;30.77;18.20;;;;;;;6.05;69.48;99980.94;1714192;83;20924;-73
2022/04/04 00:03:23;;;;;;;38.50;23.22;;;;;;;6.01;69.47;99976.34;1716863;83;21267;-74
2022/04/04 00:05:50;;;;;;;33.18;22.95;;;;;;;5.97;69.60;99984.38;1717147;83;20928;-74
2022/04/04 00:08:18;;;;;;;45.40;22.42;;;;;;;5.94;69.47;99977.58;1717280;83;20976;-73
2022/04/04 00:10:46;;;;;;;26.87;19.77;;;;;;;5.93;69.26;99985.42;1717297;83;20897;-74
2022/04/04 00:13:14;;;;;;;22.65;15.65;;;;;;;5.90;69.12;99983.82;1717332;83;20861;-73
2022/04/04 00:15:41;;;;;;;21.17;16.02;;;;;;;5.90;69.33;99988.19;1717347;83;21857;-73
2022/04/04 00:18:10;;;;;;;23.65;17.07;;;;;;;5.92;69.22;99986.36;1721700;82;20987;-74
2022/04/04 00:20:40;;;;;;;15.50;13.90;;;;;;;5.95;69.16;99988.36;1721907;83;21042;-74
2022/04/04 00:23:12;;;;;;;17.07;14.47;;;;;;;5.96;69.02;99993.96;1721779;83;21459;-73
2022/04/04 00:25:40;;;;;;;16.55;14.78;;;;;;;5.96;68.95;99995.26;1722004;83;21712;-73
2022/04/04 00:28:09;;;;;;;17.48;15.08;;;;;;;5.96;68.73;99993.13;1721819;83;20979;-73
2022/04/04 00:30:36;;;;;;;17.25;15.43;;;;;;;5.95;68.49;99996.16;1721857;82;20891;-73
2022/04/04 00:33:05;;;;;;;19.75;16.00;;;;;;;5.95;68.65;100001.37;1721802;83;20888;-73
2022/04/04 00:35:31;;;;;;;23.30;17.48;;;;;;;5.92;68.37;100002.80;1721867;83;20986;-74
2022/04/04 00:37:59;;;;;;;18.92;16.90;;;;;;;5.87;68.48;100005.23;1721882;83;20947;-74
2022/04/04 00:40:28;;;;;;;22.45;17.35;;;;;;;5.83;68.73;100007.64;1721907;83;20884;-74
2022/04/04 00:42:54;;;;;;;19.87;17.25;;;;;;;5.79;69.10;100014.75;1722030;83;20892;-73
2022/04/04 00:45:21;;;;;;;20.12;17.02;;;;;;;5.76;69.42;100017.52;1722176;83;21401;-73
2022/04/04 00:47:48;;;;;;;22.25;17.15;;;;;;;5.79;69.55;100019.95;1722174;83;20919;-74
2022/04/04 00:50:15;;;;;;;20.10;15.40;;;;;;;5.82;69.43;100019.78;1721927;83;20899;-74
2022/04/04 00:52:41;;;;;;;25.48;16.30;;;;;;;5.81;69.15;100022.86;1722012;82;21106;-74
2022/04/04 00:55:09;;;;;;;22.90;17.37;;;;;;;5.80;69.16;100014.68;1721846;82;20895;-72
2022/04/04 00:57:37;;;;;;;20.08;15.75;;;;;;;5.84;69.06;100017.12;1721800;83;21457;-73
2022/04/04 01:00:06;;;;;;;21.25;16.48;;;;;;;5.84;69.04;100025.76;1721989;82;20907;-73
2022/04/04 01:02:33;;;;;;;21.33;15.38;;;;;;;5.84;68.98;100030.13;1716486;82;20841;-73
2022/04/04 01:05:01;;;;;;;23.83;18.87;;;;;;;5.83;68.92;100028.45;1708858;84;21914;-74
2022/04/04 01:07:29;;;;;;;25.85;18.00;;;;;;;5.80;68.86;100028.98;1744772;81;21366;-74
2022/04/04 01:09:57;;;;;;;22.62;16.60;;;;;;;5.77;68.85;100026.98;1744663;81;21031;-74
2022/04/04 01:12:25;;;;;;;22.30;15.63;;;;;;;5.76;68.91;100031.83;1744655;82;21330;-74
2022/04/04 01:14:52;;;;;;;22.40;16.70;;;;;;;5.72;68.79;100036.79;1744492;82;20916;-73
2022/04/04 01:17:21;;;;;;;20.57;14.10;;;;;;;5.69;68.88;100031.72;1744701;81;21903;-73
2022/04/04 01:19:48;;;;;;;19.92;13.20;;;;;;;5.67;68.94;100038.75;1744541;82;21422;-73
2022/04/04 01:22:16;;;;;;;19.48;13.22;;;;;;;5.66;68.88;100043.13;1744469;82;20881;-74
2022/04/04 01:24:43;;;;;;;14.10;11.80;;;;;;;5.67;68.79;100038.75;1744603;82;20900;-74
2022/04/04 01:27:11;;;;;;;19.55;12.95;;;;;;;5.66;68.53;100043.59;1744798;82;21425;-73
2022/04/04 01:29:39;;;;;;;15.90;12.20;;;;;;;5.62;68.54;100041.58;1744912;81;21274;-74
2022/04/04 01:32:07;;;;;;;15.83;12.30;;;;;;;5.59;68.52;100044.34;1744482;82;20893;-74
2022/04/04 01:34:36;;;;;;;12.88;11.15;;;;;;;5.55;68.41;100038.44;1744716;82;20892;-74
2022/04/04 01:37:03;;;;;;;13.43;10.85;;;;;;;5.55;68.18;100053.20;1744908;82;21363;-74
2022/04/04 01:39:30;;;;;;;12.80;11.25;;;;;;;5.49;68.22;100051.77;1744637;82;20885;-75
2022/04/04 01:41:57;;;;;;;12.95;9.68;;;;;;;5.47;68.13;100057.92;1744510;82;21129;-73
2022/04/04 01:44:23;;;;;;;16.42;11.15;;;;;;;5.42;67.98;100052.11;1744772;81;20889;-72
2022/04/04 01:46:50;;;;;;;13.65;9.70;;;;;;;5.40;68.14;100056.08;1744489;80;20893;-74
2022/04/04 01:49:17;;;;;;;10.80;9.68;;;;;;;5.38;68.24;100058.77;1744534;81;20932;-73
2022/04/04 01:51:44;;;;;;;14.83;10.08;;;;;;;5.37;68.29;100058.83;1744772;81;20897;-74
2022/04/04 01:54:11;;;;;;;15.03;10.40;;;;;;;5.35;68.32;100056.76;1744605;81;21179;-73
2022/04/04 01:56:38;;;;;;;18.37;10.23;;;;;;;5.32;68.38;100068.16;1744573;82;20968;-74
2022/04/04 01:59:04;;;;;;;13.05;9.85;;;;;;;5.33;68.25;100067.69;1744978;82;20904;-73
2022/04/04 02:01:34;;;;;;;15.80;9.85;;;;;;;5.31;67.99;100071.65;1744399;82;20972;-73
2022/04/04 02:03:59;;;;;;;15.98;10.23;;;;;;;5.29;67.91;100070.91;1755776;81;20944;-73
2022/04/04 02:06:27;;;;;;;11.05;9.90;;;;;;;5.26;67.97;100075.40;1757891;81;21212;-73
2022/04/04 02:08:54;;;;;;;13.78;10.63;;;;;;;5.23;68.13;100077.69;1758107;80;20920;-73
2022/04/04 02:11:22;;;;;;;13.95;11.35;;;;;;;5.23;68.03;100078.16;1757777;81;20928;-75
2022/04/04 02:13:49;;;;;;;14.53;10.05;;;;;;;5.17;68.02;100069.70;1757853;81;21279;-72
2022/04/04 02:16:16;;;;;;;10.68;9.28;;;;;;;5.13;68.28;100072.05;1758774;81;20837;-71
2022/04/04 02:18:43;;;;;;;11.73;9.78;;;;;;;5.11;68.43;100075.20;1758738;81;22090;-71
2022/04/04 02:21:11;;;;;;;13.65;10.63;;;;;;;5.14;68.52;100078.12;1757904;80;20976;-73
2022/04/04 02:23:37;;;;;;;10.78;8.95;;;;;;;5.14;68.30;100087.22;1757995;80;20924;-73
2022/04/04 02:26:04;;;;;;;8.33;7.50;;;;;;;5.14;68.23;100094.55;1757967;80;20943;-72
2022/04/04 02:28:31;;;;;;;5.95;3.52;;;;;;;5.10;68.38;100106.45;1758097;81;20967;-73
2022/04/04 02:30:59;;;;;;;5.03;4.53;;;;;;;4.91;67.85;100110.33;1757952;81;21207;-72
2022/04/04 02:33:25;;;;;;;5.40;4.20;;;;;;;4.66;68.30;100112.72;1757986;81;20927;-72
2022/04/04 02:35:52;;;;;;;6.67;4.20;;;;;;;4.50;68.90;100111.70;1722369;83;20937;-72
2022/04/04 02:38:21;;;;;;;5.95;3.95;;;;;;;4.36;69.53;100122.69;1722210;83;20935;-73
2022/04/04 02:40:48;;;;;;;6.30;4.40;;;;;;;4.30;70.23;100129.42;1721886;83;20900;-72
2022/04/04 02:43:16;;;;;;;9.15;6.10;;;;;;;4.25;70.56;100130.91;1721986;83;21137;-72
2022/04/04 02:45:42;;;;;;;7.60;5.22;;;;;;;4.21;70.96;100129.35;1721939;83;20879;-74
2022/04/04 02:48:09;;;;;;;7.33;6.08;;;;;;;4.19;71.20;100138.11;1721912;82;20927;-73
2022/04/04 02:50:36;;;;;;;11.38;7.15;;;;;;;4.21;71.56;100136.30;1721879;83;20919;-74
2022/04/04 02:53:03;;;;;;;14.75;7.72;;;;;;;4.21;71.64;100140.19;1722323;82;20924;-73
2022/04/04 02:58:16;;;;;;;9.13;6.20;;;;;;;4.10;72.13;100140.17;1721940;83;20876;-73
2022/04/04 03:00:42;;;;;;;8.38;5.85;;;;;;;4.11;72.21;100144.47;1722123;83;21416;-74
2022/04/04 03:03:10;;;;;;;10.45;5.30;;;;;;;4.12;72.40;100151.80;1716983;82;20995;-74
2022/04/04 03:05:36;;;;;;;9.75;6.03;;;;;;;4.15;72.52;100151.66;1708902;84;21369;-74
2022/04/04 03:08:04;;;;;;;9.63;4.95;;;;;;;4.16;72.46;100159.84;1708894;84;21944;-74
2022/04/04 03:10:33;;;;;;;6.08;4.85;;;;;;;4.20;72.42;100161.38;1708840;82;20880;-73
2022/04/04 03:13:02;;;;;;;7.67;5.15;;;;;;;4.24;72.41;100162.95;1708795;84;20940;-74
2022/04/04 03:15:29;;;;;;;9.48;5.90;;;;;;;4.29;72.26;100167.52;1708759;84;21492;-74
2022/04/04 03:17:56;;;;;;;9.80;6.45;;;;;;;4.32;71.92;100170.44;1708933;84;20889;-74
2022/04/04 03:20:24;;;;;;;8.23;5.85;;;;;;;4.30;71.84;100175.69;1708792;84;21952;-74
2022/04/04 03:22:55;;;;;;;8.70;6.12;;;;;;;4.26;71.60;100179.77;1708885;84;20916;-74
2022/04/04 03:25:22;;;;;;;6.78;5.00;;;;;;;4.23;71.44;100178.14;1708821;84;20900;-73
2022/04/04 03:27:50;;;;;;;5.12;4.60;;;;;;;4.19;71.40;100184.36;1709057;84;20904;-75
2022/04/04 03:30:24;;;;;;;11.63;6.50;;;;;;;4.15;71.46;100187.98;1708813;84;20860;-75
2022/04/04 03:32:51;;;;;;;5.90;5.17;;;;;;;4.12;71.49;100194.14;1708861;83;21297;-73
2022/04/04 03:35:18;;;;;;;10.20;6.40;;;;;;;4.10;71.50;100191.23;1708883;84;21022;-74
2022/04/04 03:37:47;;;;;;;8.40;7.10;;;;;;;4.10;71.62;100198.55;1708989;84;20924;-73
2022/04/04 03:40:16;;;;;;;14.45;8.15;;;;;;;4.12;71.75;100197.20;1708861;84;20908;-73
2022/04/04 03:42:44;;;;;;;11.70;8.13;;;;;;;4.16;71.62;100201.37;1744571;81;21520;-73
2022/04/04 03:45:12;;;;;;;19.82;12.75;;;;;;;4.14;71.43;100202.72;1744570;81;21066;-74
2022/04/04 03:47:41;;;;;;;30.02;19.57;;;;;;;4.12;71.40;100205.83;1744519;82;20936;-74
2022/04/04 03:50:10;;;;;;;24.77;14.20;;;;;;;4.14;71.34;100219.59;1745207;80;20924;-75
2022/04/04 03:52:36;;;;;;;25.35;14.50;;;;;;;4.15;71.13;100216.53;1744738;82;20862;-74
2022/04/04 03:55:03;;;;;;;19.70;13.00;;;;;;;4.14;70.80;100220.88;1744561;82;21431;-75
2022/04/04 03:57:30;;;;;;;13.62;10.13;;;;;;;4.11;70.56;100222.74;1744584;81;21660;-73
2022/04/04 03:59:57;;;;;;;18.32;11.88;;;;;;;4.04;70.47;100223.44;1744581;82;20937;-74
2022/04/04 04:02:24;;;;;;;19.37;12.20;;;;;;;3.99;70.61;100237.52;1744576;82;20933;-74
2022/04/04 04:04:52;;;;;;;26.48;15.40;;;;;;;3.94;70.76;100235.09;1757130;81;21455;-73
2022/04/04 04:07:24;;;;;;;34.23;16.52;;;;;;;3.97;71.19;100242.75;1758081;81;20966;-75
2022/04/04 04:09:47;;;;;;;28.12;14.63;;;;;;;4.01;71.23;100239.59;1757585;81;21926;-74
2022/04/04 04:12:15;;;;;;;23.32;14.20;;;;;;;4.06;71.25;100239.80;1757826;81;21425;-74
2022/04/04 04:14:41;;;;;;;16.82;10.00;;;;;;;4.10;71.30;100244.42;1757961;81;20967;-74
2022/04/04 04:17:11;;;;;;;18.98;12.50;;;;;;;4.15;70.65;100242.48;1757912;81;20985;-72
2022/04/04 04:22:22;;;;;;;24.23;13.65;;;;;;;4.22;70.41;100262.55;1758003;81;21240;-74
2022/04/04 04:24:49;;;;;;;14.83;10.93;;;;;;;4.24;70.59;100265.47;1757909;81;20932;-74
2022/04/04 04:27:16;;;;;;;15.28;10.68;;;;;;;4.25;70.04;100266.34;1758172;81;20853;-74
2022/04/04 04:29:44;;;;;;;8.95;7.62;;;;;;;4.19;69.31;100270.00;1757952;80;20908;-73
2022/04/04 04:32:12;;;;;;;9.83;6.50;;;;;;;4.12;68.96;100278.94;1757915;81;21530;-74
2022/04/04 04:34:40;;;;;;;7.47;4.72;;;;;;;4.01;69.03;100287.13;1757753;81;21390;-75
2022/04/04 04:37:07;;;;;;;7.95;5.65;;;;;;;3.92;68.80;100286.19;1757774;80;20845;-74
2022/04/04 04:39:33;;;;;;;8.63;4.90;;;;;;;3.84;69.30;100290.81;1757943;81;20888;-74
2022/04/04 04:42:01;;;;;;;6.67;4.65;;;;;;;3.80;69.38;100300.47;1757820;81;20959;-74
2022/04/04 04:44:28;;;;;;;6.62;5.40;;;;;;;3.77;69.66;100296.67;1757932;80;21023;-75
2022/04/04 04:46:56;;;;;;;9.10;5.42;;;;;;;3.76;69.94;100304.08;1757852;81;21275;-75
2022/04/04 04:49:24;;;;;;;8.23;5.35;;;;;;;3.73;70.11;100302.45;1757878;81;21333;-74
2022/04/04 04:51:52;;;;;;;5.05;4.55;;;;;;;3.73;70.37;100310.23;1757891;81;21006;-74
2022/04/04 04:54:19;;;;;;;4.08;3.67;;;;;;;3.77;70.42;100315.29;1757799;81;21437;-74
2022/04/04 04:56:47;;;;;;;3.83;3.35;;;;;;;3.76;70.55;100326.55;1757799;81;21370;-73
2022/04/04 04:59:13;;;;;;;4.17;3.52;;;;;;;3.77;70.48;100325.66;1757958;81;21250;-73
2022/04/04 05:01:41;;;;;;;3.80;3.50;;;;;;;3.72;70.54;100329.72;1757888;81;20960;-74
2022/04/04 05:04:10;;;;;;;4.03;3.72;;;;;;;3.67;70.71;100338.13;1750986;81;20882;-74
2022/04/04 05:06:36;;;;;;;4.60;4.20;;;;;;;3.64;71.03;100342.95;1744665;80;20928;-74
2022/04/04 05:09:03;;;;;;;4.80;4.40;;;;;;;3.66;71.20;100349.39;1744589;81;20861;-75
2022/04/04 05:11:30;;;;;;;4.85;4.37;;;;;;;3.64;71.24;100346.84;1744461;82;21619;-74
2022/04/04 05:13:57;;;;;;;5.25;4.75;;;;;;;3.62;71.45;100347.80;1744643;81;20920;-75
2022/04/04 05:16:28;;;;;;;4.53;4.20;;;;;;;3.61;71.50;100361.67;1744495;81;20896;-74
2022/04/04 05:18:56;;;;;;;5.00;4.42;;;;;;;3.63;71.54;100363.77;1744455;82;21323;-74
2022/04/04 05:21:23;;;;;;;5.20;4.80;;;;;;;3.64;71.37;100370.17;1744658;81;21014;-73
2022/04/04 05:23:49;;;;;;;5.65;5.15;;;;;;;3.61;71.43;100369.45;1744554;81;21271;-72
2022/04/04 05:26:16;;;;;;;5.97;5.47;;;;;;;3.55;71.04;100371.80;1744873;82;20862;-75
2022/04/04 05:28:43;;;;;;;5.83;5.37;;;;;;;3.49;71.28;100370.70;1708929;82;20948;-71
2022/04/04 05:31:10;;;;;;;5.62;5.10;;;;;;;3.47;71.44;100377.72;1710199;84;20908;-73
2022/04/04 05:33:37;;;;;;;5.40;4.92;;;;;;;3.43;71.37;100378.27;1708946;84;20896;-72
2022/04/04 05:36:05;;;;;;;5.58;5.00;;;;;;;3.38;71.72;100378.02;1708737;84;21252;-75
2022/04/04 05:38:33;;;;;;;6.37;5.40;;;;;;;3.36;72.09;100379.38;1708758;84;20979;-76
2022/04/04 05:41:00;;;;;;;5.47;5.05;;;;;;;3.37;72.24;100386.70;1709058;84;20912;-74
2022/04/04 05:43:28;;;;;;;5.67;4.87;;;;;;;3.41;72.34;100389.13;1709082;84;21010;-74
2022/04/04 05:45:55;;;;;;;5.65;5.12;;;;;;;3.47;72.52;100390.69;1709532;84;20940;-75
2022/04/04 05:48:23;;;;;;;7.53;5.72;;;;;;;3.55;72.78;100400.77;1709239;84;21116;-75
2022/04/04 05:50:49;;;;;;;6.67;6.05;;;;;;;3.65;72.80;100402.16;1708877;82;20935;-74
2022/04/04 05:53:16;;;;;;;5.03;4.53;;;;;;;3.88;73.16;100411.25;1708683;84;20936;-75
2022/04/04 05:55:43;;;;;;;5.55;5.05;;;;;;;4.13;72.68;100411.66;1708961;84;21426;-75
2022/04/04 05:58:10;;;;;;;5.95;5.42;;;;;;;4.35;72.12;100412.55;1708754;84;20896;-76
2022/04/04 06:00:37;;;;;;;6.80;5.42;;;;;;;4.52;71.59;100413.69;1708742;84;21743;-76
2022/04/04 06:03:03;;;;;;;5.90;5.35;;;;;;;4.65;70.81;100418.80;1708952;84;21433;-74
2022/04/04 06:05:30;;;;;;;6.12;5.53;;;;;;;4.70;69.96;100423.35;1715754;82;20975;-75
2022/04/04 06:07:58;;;;;;;6.35;5.70;;;;;;;4.68;69.20;100432.11;1716399;82;20912;-75
2022/04/04 06:10:25;;;;;;;6.08;5.47;;;;;;;4.57;68.90;100423.44;1716419;83;20894;-75
2022/04/04 06:12:53;;;;;;;5.78;5.30;;;;;;;4.51;69.06;100430.15;1752597;82;21262;-74
2022/04/04 06:18:17;;;;;;;8.35;5.08;;;;;;;4.53;68.59;100431.78;1798538;79;22559;-74
2022/04/04 06:20:43;;;;;;;10.95;5.72;;;;;;;4.46;68.43;100439.41;1758436;80;20920;-76
2022/04/04 06:23:12;;;;;;;6.80;5.00;;;;;;;4.46;68.34;100438.58;1758445;81;20925;-76
2022/04/04 06:25:41;;;;;;;4.22;3.83;;;;;;;4.45;68.21;100436.90;1758462;81;20995;-74
2022/04/04 06:28:08;;;;;;;4.80;4.28;;;;;;;4.46;67.87;100442.47;1758375;80;21426;-75
2022/04/04 06:30:35;;;;;;;3.98;3.58;;;;;;;4.45;67.66;100448.13;1758218;80;20849;-74
2022/04/04 06:33:05;;;;;;;3.92;3.62;;;;;;;4.52;67.38;100452.17;1758563;81;20963;-75
2022/04/04 06:35:33;;;;;;;3.20;2.87;;;;;;;5.00;67.60;100451.63;1758458;81;22124;-76
2022/04/04 06:38:01;;;;;;;3.42;2.90;;;;;;;5.35;66.72;100454.11;1758296;81;20943;-75
2022/04/04 06:40:29;;;;;;;14.65;6.47;;;;;;;5.57;64.84;100461.03;1758290;81;20857;-75
2022/04/04 06:42:58;;;;;;;4.30;3.87;;;;;;;5.58;63.55;100464.88;1758259;81;21437;-75
2022/04/04 06:45:24;;;;;;;8.30;4.20;;;;;;;5.48;62.73;100470.05;1725185;83;20899;-74
2022/04/04 06:47:51;;;;;;;32.93;15.80;;;;;;;5.42;62.94;100475.97;1725259;83;21132;-74
2022/04/04 06:50:18;;;;;;;7.80;6.05;;;;;;;5.36;63.23;100469.27;1711130;83;20999;-75
2022/04/04 06:52:46;;;;;;;14.07;10.18;;;;;;;5.37;63.27;100482.66;1711272;83;21366;-75
2022/04/04 06:55:12;;;;;;;4.80;3.40;;;;;;;5.40;63.08;100491.62;1711172;83;20988;-75
2022/04/04 06:57:41;;;;;;;10.90;6.25;;;;;;;5.39;62.05;100486.88;1722223;83;21012;-76
2022/04/04 07:00:11;;;;;;;10.93;6.97;;;;;;;5.45;61.93;100492.30;1722109;83;21445;-74
2022/04/04 07:02:39;;;;;;;3.27;2.98;;;;;;;5.88;61.23;100493.09;1722121;83;20853;-74
2022/04/04 07:05:09;;;;;;;4.15;2.40;;;;;;;6.64;60.02;100499.78;1722282;83;20920;-75
2022/04/04 07:07:35;;;;;;;8.23;5.17;;;;;;;7.36;58.09;100502.92;1722341;83;20975;-74
2022/04/04 07:10:05;;;;;;;5.15;4.15;;;;;;;7.89;55.79;100499.85;1722262;83;20881;-75
2022/04/04 07:12:33;;;;;;;3.42;2.92;;;;;;;8.02;55.34;100504.83;1722403;83;21824;-77
2022/04/04 07:15:02;;;;;;;5.80;5.05;;;;;;;7.95;54.41;100504.77;1722354;82;20960;-75
2022/04/04 07:17:29;;;;;;;4.35;3.95;;;;;;;7.74;54.65;100509.79;1718060;83;20996;-75
2022/04/04 07:19:58;;;;;;;4.08;2.90;;;;;;;7.59;55.35;100520.05;1714828;83;20952;-77
2022/04/04 07:22:25;;;;;;;7.22;5.67;;;;;;;7.66;54.51;100524.51;1714879;83;20929;-74
2022/04/04 07:24:51;;;;;;;5.00;3.08;;;;;;;7.80;54.29;100529.91;1714767;83;21241;-76
2022/04/04 07:27:18;;;;;;;3.65;2.83;;;;;;;7.88;53.34;100522.98;1714835;83;20900;-74
2022/04/04 07:29:46;;;;;;;6.62;2.67;;;;;;;7.97;53.33;100523.81;1714259;83;21382;-76
2022/04/04 07:32:12;;;;;;;3.87;2.92;;;;;;;7.94;53.08;100527.03;1714346;83;21003;-75
2022/04/04 07:34:40;;;;;;;2.62;2.35;;;;;;;7.87;53.06;100534.36;1714305;83;20960;-75
2022/04/04 07:37:06;;;;;;;3.25;2.95;;;;;;;7.83;52.80;100538.03;1714375;83;21860;-74
2022/04/04 07:39:33;;;;;;;3.75;2.67;;;;;;;7.79;52.10;100539.11;1714469;83;21019;-75
2022/04/04 07:42:02;;;;;;;4.62;3.47;;;;;;;8.05;52.53;100545.17;1714213;83;20980;-74
2022/04/04 07:44:29;;;;;;;5.72;2.83;;;;;;;8.50;52.65;100547.66;1714275;83;20969;-75
2022/04/04 07:46:56;;;;;;;3.95;2.67;;;;;;;9.14;50.67;100550.37;1714449;83;20944;-75
2022/04/04 07:49:22;;;;;;;4.03;3.00;;;;;;;9.43;48.50;100561.83;1714537;83;21076;-74
2022/04/04 07:51:50;;;;;;;8.80;6.58;;;;;;;9.47;48.93;100555.94;1714322;83;20905;-75
2022/04/04 07:54:19;;;;;;;4.53;4.03;;;;;;;9.40;49.00;100567.22;1714283;83;20952;-75
2022/04/04 07:56:45;;;;;;;4.15;3.75;;;;;;;9.28;49.08;100563.52;1714444;83;20921;-74
2022/04/04 07:59:12;;;;;;;5.22;4.22;;;;;;;9.17;48.91;100571.59;1714634;83;20940;-74
2022/04/04 08:01:39;;;;;;;6.55;4.75;;;;;;;8.99;48.78;100582.59;1714361;83;21152;-75
2022/04/04 08:04:05;;;;;;;6.95;5.58;;;;;;;8.77;48.82;100571.96;1714144;83;21450;-74
2022/04/04 08:06:33;;;;;;;9.73;6.12;;;;;;;8.61;48.87;100577.62;1714292;83;21417;-75
2022/04/04 08:08:59;;;;;;;5.25;3.90;;;;;;;8.51;49.05;100572.02;1714169;83;21015;-74
2022/04/04 08:11:26;;;;;;;4.12;3.05;;;;;;;8.78;49.67;100581.52;1714346;83;20921;-74
2022/04/04 08:13:56;;;;;;;2.65;2.45;;;;;;;9.18;50.43;100573.27;1714297;83;20937;-74
2022/04/04 08:16:25;;;;;;;6.35;5.15;;;;;;;9.49;48.71;100577.63;1714350;83;20877;-76
2022/04/04 08:18:53;;;;;;;11.90;7.72;;;;;;;9.52;48.10;100584.86;1714211;83;20956;-74
2022/04/04 08:21:20;;;;;;;6.10;5.50;;;;;;;9.38;47.01;100595.24;1714312;83;20940;-75
2022/04/04 08:23:47;;;;;;;7.67;6.33;;;;;;;9.03;47.26;100603.27;1714523;83;21356;-76
2022/04/04 08:26:14;;;;;;;10.18;6.58;;;;;;;8.68;47.91;100590.75;1714406;83;21693;-75
2022/04/04 08:28:42;;;;;;;9.68;5.45;;;;;;;8.54;48.37;100600.63;1714150;83;20919;-75
2022/04/04 08:31:08;;;;;;;6.25;4.78;;;;;;;8.68;47.88;100595.52;1714031;83;20873;-73
2022/04/04 08:33:37;;;;;;;5.10;4.60;;;;;;;8.83;48.25;100590.42;1714501;83;20877;-75
2022/04/04 08:36:05;;;;;;;7.22;5.22;;;;;;;8.93;48.11;100591.59;1714371;83;21003;-76
2022/04/04 08:38:35;;;;;;;5.58;4.28;;;;;;;8.94;47.59;100606.37;1714237;83;21241;-76
2022/04/04 08:41:05;;;;;;;5.25;3.67;;;;;;;8.94;46.80;100605.07;1714211;83;20940;-72
2022/04/04 08:43:39;;;;;;;5.42;4.37;;;;;;;9.17;46.69;100597.28;1715914;83;20873;-73
2022/04/04 08:46:06;;;;;;;3.20;2.90;;;;;;;9.63;47.42;100600.45;1715070;83;20952;-75
2022/04/04 08:48:37;;;;;;;3.70;3.40;;;;;;;10.02;44.84;100593.84;1714474;83;20897;-75
2022/04/04 08:51:08;;;;;;;3.90;3.50;;;;;;;10.22;44.30;100591.36;1714439;83;21267;-74
2022/04/04 08:53:36;;;;;;;4.08;3.58;;;;;;;10.33;44.22;100599.47;1714204;83;20925;-76
2022/04/04 08:56:04;;;;;;;6.50;4.12;;;;;;;10.34;43.56;100583.66;1714353;83;20996;-75
2022/04/04 08:58:33;;;;;;;4.22;3.15;;;;;;;10.32;43.44;100595.17;1714121;83;21000;-75
2022/04/04 09:01:00;;;;;;;3.95;3.65;;;;;;;10.44;43.87;100596.21;1714241;83;20999;-74
2022/04/04 09:03:31;;;;;;;4.10;3.70;;;;;;;10.74;44.87;100599.61;1714350;83;21283;-75
2022/04/04 09:06:05;;;;;;;4.53;2.52;;;;;;;11.33;43.34;100603.37;1714153;83;21434;-75
2022/04/04 09:08:44;;;;;;;3.95;2.58;;;;;;;12.00;42.21;100594.23;1714304;83;21719;-75
2022/04/04 09:11:13;;;;;;;3.75;2.75;;;;;;;12.55;40.25;100591.47;1714430;83;21089;-76
2022/04/04 09:13:40;;;;;;;2.62;2.42;;;;;;;12.55;40.25;100591.47;1714436;83;21528;-76
2022/04/04 09:16:10;;;;;;;3.33;2.80;;;;;;;12.16;39.32;100590.14;1688400;83;20940;-76
2022/04/04 09:18:42;;;;;;;4.03;2.77;;;;;;;12.16;39.32;100590.14;1714433;83;20905;-76
2022/04/04 09:21:15;;;;;;;2.80;2.47;;;;;;;11.87;40.13;100602.52;1714340;83;21035;-75
2022/04/04 09:23:50;;;;;;;2.30;2.20;;;;;;;11.47;38.95;100598.58;1714168;83;21449;-75
2022/04/04 09:26:42;;;;;;;3.60;3.30;;;;;;;11.33;39.21;100595.97;1714367;83;21366;-76
2022/04/04 09:29:16;;;;;;;6.87;4.28;;;;;;;11.27;40.05;100598.98;1714411;83;21572;-74
2022/04/04 09:32:11;;;;;;;3.02;2.80;;;;;;;11.32;39.62;100598.23;1714355;83;20904;-75
2022/04/04 09:34:52;;;;;;;2.95;2.58;;;;;;;11.55;39.46;100600.70;1713902;83;21366;-74
2022/04/04 09:37:21;;;;;;;3.60;3.37;;;;;;;11.55;39.46;100600.70;1652931;86;21407;-73
2022/04/04 09:40:09;;;;;;;3.85;3.55;;;;;;;12.23;38.49;100595.34;1653011;86;20937;-74
2022/04/04 09:42:36;;;;;;;3.92;2.83;;;;;;;12.46;37.26;100606.09;1653009;86;21942;-74
2022/04/04 09:45:09;;;;;;;2.75;2.17;;;;;;;12.46;37.26;100606.09;1653070;86;20945;-74
2022/04/04 09:47:55;;;;;;;3.02;2.67;;;;;;;12.58;37.41;100607.89;1653046;86;21375;-76
2022/04/04 09:50:38;;;;;;;2.12;1.90;;;;;;;12.64;37.53;100620.61;1652916;86;20989;-75
2022/04/04 09:53:09;;;;;;;2.67;2.22;;;;;;;12.46;34.81;100619.72;1653287;86;20938;-76
2022/04/04 09:55:38;;;;;;;2.98;1.95;;;;;;;12.02;34.03;100614.69;1652201;86;21174;-77
2022/04/04 09:58:08;;;;;;;2.37;2.15;;;;;;;12.05;34.51;100616.30;1652862;86;20893;-75
2022/04/04 10:00:36;;;;;;;3.10;2.20;;;;;;;12.05;34.51;100616.30;1653725;86;20905;-75
2022/04/04 10:03:05;;;;;;;3.80;2.22;;;;;;;12.49;35.87;100619.50;1653424;86;20981;-74
2022/04/04 10:05:32;;;;;;;2.87;2.67;;;;;;;13.65;33.48;100604.73;1653277;86;21537;-79
2022/04/04 10:08:00;;;;;;;2.98;2.72;;;;;;;13.65;33.48;100604.73;1652969;86;21005;-76
2022/04/04 10:10:31;;;;;;;3.70;2.22;;;;;;;14.07;33.49;100616.16;1652901;86;20997;-75
2022/04/04 10:12:58;;;;;;;6.12;3.15;;;;;;;14.35;31.96;100604.86;1657064;83;20893;-75
2022/04/04 10:15:26;;;;;;;2.75;2.50;;;;;;;14.44;32.07;100618.67;1714060;83;20873;-75
2022/04/04 10:17:55;;;;;;;5.62;2.40;;;;;;;14.41;31.13;100617.11;1712249;83;20909;-75
2022/04/04 10:20:22;;;;;;;4.08;2.40;;;;;;;14.32;31.11;100616.49;1708453;83;21111;-76
2022/04/04 10:22:54;;;;;;;2.10;1.90;;;;;;;14.43;31.68;100617.00;1708495;83;20941;-77
2022/04/04 10:25:28;;;;;;;2.50;2.30;;;;;;;14.47;31.37;100619.73;1708629;83;20960;-77
2022/04/04 10:27:55;;;;;;;1.87;1.77;;;;;;;14.74;31.41;100615.52;1708622;83;20956;-76
2022/04/04 10:30:44;;;;;;;3.42;2.00;;;;;;;15.06;30.80;100612.14;1708549;83;20968;-76
2022/04/04 10:33:23;;;;;;;2.40;2.20;;;;;;;15.32;29.97;100618.00;1707972;83;21158;-75
2022/04/04 10:36:10;;;;;;;2.47;2.10;;;;;;;15.56;30.87;100629.70;1707741;84;20911;-77
2022/04/04 10:38:49;;;;;;;2.50;2.25;;;;;;;15.85;30.08;100628.70;1708441;83;21004;-77
2022/04/04 10:41:23;;;;;;;2.27;2.08;;;;;;;16.25;30.50;100639.95;1708482;83;20913;-77
2022/04/04 10:43:53;;;;;;;2.27;1.92;;;;;;;16.47;29.69;100644.74;1708672;83;21609;-75
2022/04/04 10:46:22;;;;;;;4.08;2.60;;;;;;;16.51;28.99;100632.93;1708583;83;21248;-76
2022/04/04 10:48:54;;;;;;;3.37;2.50;;;;;;;16.69;29.26;100645.09;1708420;83;21386;-76
2022/04/04 10:51:31;;;;;;;2.33;2.12;;;;;;;16.84;29.28;100635.03;1708642;83;20996;-78
2022/04/04 10:54:07;;;;;;;2.55;2.33;;;;;;;16.90;27.97;100637.16;1708482;84;20948;-76
2022/04/04 10:56:42;;;;;;;2.15;1.98;;;;;;;16.72;28.44;100638.23;1708400;84;21036;-76
2022/04/04 10:59:23;;;;;;;2.52;2.25;;;;;;;16.47;28.09;100638.13;1708665;84;21355;-77
2022/04/04 11:01:53;;;;;;;2.85;2.55;;;;;;;15.97;28.44;100641.89;1707700;82;20873;-76
2022/04/04 11:04:29;;;;;;;2.90;2.67;;;;;;;15.47;28.56;100644.53;1708561;83;20992;-75
2022/04/04 11:10:06;;;;;;;3.30;2.72;;;;;;;14.85;28.75;100645.88;1685851;84;20996;-75
2022/04/04 11:13:04;;;;;;;2.05;1.80;;;;;;;14.64;31.41;100643.08;1708512;84;21882;-76
2022/04/04 11:15:56;;;;;;;3.12;2.52;;;;;;;14.42;28.95;100641.69;1631818;88;20929;-76
2022/04/04 11:18:32;;;;;;;2.87;2.65;;;;;;;14.07;29.52;100639.89;1631861;86;20981;-76
2022/04/04 11:21:00;;;;;;;3.15;2.83;;;;;;;13.84;29.77;100640.28;1631900;88;20921;-77
2022/04/04 11:23:30;;;;;;;2.47;2.27;;;;;;;13.63;30.21;100651.44;1631983;86;20994;-76
2022/04/04 11:25:56;;;;;;;3.67;2.95;;;;;;;13.25;29.84;100649.73;1632016;88;21253;-76
2022/04/04 11:28:28;;;;;;;3.00;2.70;;;;;;;12.78;30.57;100653.02;1631972;88;20955;-77
2022/04/04 11:30:56;;;;;;;5.62;2.45;;;;;;;12.53;31.50;100650.75;1631976;88;21036;-77
2022/04/04 11:33:23;;;;;;;7.47;3.25;;;;;;;12.43;31.66;100649.23;1610641;88;21498;-76
2022/04/04 11:35:54;;;;;;;2.22;2.05;;;;;;;12.38;31.89;100653.09;1631887;88;21685;-75
2022/04/04 11:38:21;;;;;;;2.65;2.10;;;;;;;12.23;31.03;100654.98;1631923;88;21248;-76
2022/04/04 11:41:01;;;;;;;2.50;2.30;;;;;;;11.99;30.83;100647.76;1632000;88;20991;-77
2022/04/04 11:43:17;;;;;;;3.42;2.70;;;;;;;11.73;30.85;100656.45;1630277;86;20953;-75
2022/04/04 11:45:47;;;;;;;5.08;3.08;;;;;;;11.70;31.91;100648.31;1631896;88;21024;-75